sensor_id;sensor_type;location;lat;lon;timestamp;temperature;humidity
59162;DHT22;44942;48.936;8.260;2023-09-30T00:02:20;25.40;54.20
59162;DHT22;44942;48.936;8.260;2023-09-30T00:07:21;25.40;55.10
59162;DHT22;44942;48.936;8.260;2023-09-30T00:12:22;25.40;54.30
59162;DHT22;44942;48.936;8.260;2023-09-30T00:17:22;25.40;54.30
59162;DHT22;44942;48.936;8.260;2023-09-30T00:22:23;25.40;54.40
59162;DHT22;44942;48.936;8.260;2023-09-30T00:27:23;25.30;54.40
59162;DHT22;44942;48.936;8.260;2023-09-30T00:32:24;25.30;54.40
59162;DHT22;44942;48.936;8.260;2023-09-30T00:37:25;25.30;54.40
59162;DHT22;44942;48.936;8.260;2023-09-30T00:42:25;25.30;54.40
59162;DHT22;44942;48.936;8.260;2023-09-30T00:47:27;25.30;54.50
59162;DHT22;44942;48.936;8.260;2023-09-30T00:52:27;25.30;54.50
59162;DHT22;44942;48.936;8.260;2023-09-30T00:57:29;25.30;54.50
59162;DHT22;44942;48.936;8.260;2023-09-30T01:02:30;25.30;54.50
59162;DHT22;44942;48.936;8.260;2023-09-30T01:07:31;25.30;54.50
59162;DHT22;44942;48.936;8.260;2023-09-30T01:12:32;25.30;54.50
59162;DHT22;44942;48.936;8.260;2023-09-30T01:17:32;25.30;54.50
59162;DHT22;44942;48.936;8.260;2023-09-30T01:22:33;25.30;54.60
59162;DHT22;44942;48.936;8.260;2023-09-30T01:27:33;25.30;54.60
59162;DHT22;44942;48.936;8.260;2023-09-30T01:32:34;25.30;54.60
59162;DHT22;44942;48.936;8.260;2023-09-30T01:37:35;25.30;54.60
59162;DHT22;44942;48.936;8.260;2023-09-30T01:42:36;25.30;54.60
59162;DHT22;44942;48.936;8.260;2023-09-30T01:47:37;25.20;54.60
59162;DHT22;44942;48.936;8.260;2023-09-30T01:52:37;25.20;54.70
59162;DHT22;44942;48.936;8.260;2023-09-30T01:57:38;25.20;54.70
59162;DHT22;44942;48.936;8.260;2023-09-30T02:02:39;25.20;54.70
59162;DHT22;44942;48.936;8.260;2023-09-30T02:07:43;25.20;54.80
59162;DHT22;44942;48.936;8.260;2023-09-30T02:12:44;25.20;54.80
59162;DHT22;44942;48.936;8.260;2023-09-30T02:17:44;25.20;54.80
59162;DHT22;44942;48.936;8.260;2023-09-30T02:22:46;25.20;54.90
59162;DHT22;44942;48.936;8.260;2023-09-30T02:27:47;25.20;55.00
59162;DHT22;44942;48.936;8.260;2023-09-30T02:32:48;25.10;54.90
59162;DHT22;44942;48.936;8.260;2023-09-30T02:37:49;25.20;55.00
59162;DHT22;44942;48.936;8.260;2023-09-30T02:42:50;25.20;55.10
59162;DHT22;44942;48.936;8.260;2023-09-30T02:47:52;25.20;55.00
59162;DHT22;44942;48.936;8.260;2023-09-30T02:52:52;25.10;55.00
59162;DHT22;44942;48.936;8.260;2023-09-30T02:57:53;25.20;55.00
59162;DHT22;44942;48.936;8.260;2023-09-30T03:02:54;25.10;55.00
59162;DHT22;44942;48.936;8.260;2023-09-30T03:07:54;25.10;55.00
59162;DHT22;44942;48.936;8.260;2023-09-30T03:12:56;25.10;55.00
59162;DHT22;44942;48.936;8.260;2023-09-30T03:17:57;25.10;55.10
59162;DHT22;44942;48.936;8.260;2023-09-30T03:22:58;25.10;55.10
59162;DHT22;44942;48.936;8.260;2023-09-30T03:27:59;25.10;55.10
59162;DHT22;44942;48.936;8.260;2023-09-30T03:33:00;25.10;55.10
59162;DHT22;44942;48.936;8.260;2023-09-30T03:38:01;25.00;55.10
59162;DHT22;44942;48.936;8.260;2023-09-30T03:43:02;25.10;55.10
59162;DHT22;44942;48.936;8.260;2023-09-30T03:48:04;25.00;55.10
59162;DHT22;44942;48.936;8.260;2023-09-30T03:53:05;25.00;55.10
59162;DHT22;44942;48.936;8.260;2023-09-30T03:58:09;25.00;55.10
59162;DHT22;44942;48.936;8.260;2023-09-30T04:03:10;25.00;55.10
59162;DHT22;44942;48.936;8.260;2023-09-30T04:08:10;25.00;55.20
59162;DHT22;44942;48.936;8.260;2023-09-30T04:13:11;25.00;55.20
59162;DHT22;44942;48.936;8.260;2023-09-30T04:18:12;25.00;55.30
59162;DHT22;44942;48.936;8.260;2023-09-30T04:23:13;25.00;55.20
59162;DHT22;44942;48.936;8.260;2023-09-30T04:28:14;24.90;55.20
59162;DHT22;44942;48.936;8.260;2023-09-30T04:33:16;24.90;55.20
59162;DHT22;44942;48.936;8.260;2023-09-30T04:38:17;24.90;55.10
59162;DHT22;44942;48.936;8.260;2023-09-30T04:43:18;24.90;55.30
59162;DHT22;44942;48.936;8.260;2023-09-30T04:48:19;24.90;55.30
59162;DHT22;44942;48.936;8.260;2023-09-30T04:53:19;24.90;55.30
59162;DHT22;44942;48.936;8.260;2023-09-30T04:58:20;24.90;55.30
59162;DHT22;44942;48.936;8.260;2023-09-30T05:03:21;24.90;55.30
59162;DHT22;44942;48.936;8.260;2023-09-30T05:08:23;24.90;55.30
59162;DHT22;44942;48.936;8.260;2023-09-30T05:13:24;24.90;55.30
59162;DHT22;44942;48.936;8.260;2023-09-30T05:18:25;24.90;55.30
59162;DHT22;44942;48.936;8.260;2023-09-30T05:23:25;24.90;55.30
59162;DHT22;44942;48.936;8.260;2023-09-30T05:28:26;24.90;55.20
59162;DHT22;44942;48.936;8.260;2023-09-30T05:33:28;24.80;55.10
59162;DHT22;44942;48.936;8.260;2023-09-30T05:38:29;24.90;55.10
59162;DHT22;44942;48.936;8.260;2023-09-30T05:43:31;24.90;55.00
59162;DHT22;44942;48.936;8.260;2023-09-30T05:48:32;24.90;55.00
59162;DHT22;44942;48.936;8.260;2023-09-30T05:53:33;24.90;55.00
59162;DHT22;44942;48.936;8.260;2023-09-30T05:58:34;24.90;54.90
59162;DHT22;44942;48.936;8.260;2023-09-30T06:03:34;24.90;54.90
59162;DHT22;44942;48.936;8.260;2023-09-30T06:08:39;24.90;54.90
59162;DHT22;44942;48.936;8.260;2023-09-30T06:13:40;24.90;54.90
59162;DHT22;44942;48.936;8.260;2023-09-30T06:18:40;25.00;54.90
59162;DHT22;44942;48.936;8.260;2023-09-30T06:23:41;25.00;54.90
59162;DHT22;44942;48.936;8.260;2023-09-30T06:28:43;25.00;54.90
59162;DHT22;44942;48.936;8.260;2023-09-30T06:33:45;24.90;54.80
59162;DHT22;44942;48.936;8.260;2023-09-30T06:38:46;25.00;54.90
59162;DHT22;44942;48.936;8.260;2023-09-30T06:43:49;25.00;54.90
59162;DHT22;44942;48.936;8.260;2023-09-30T06:48:49;24.90;54.50
59162;DHT22;44942;48.936;8.260;2023-09-30T06:53:52;24.60;54.40
59162;DHT22;44942;48.936;8.260;2023-09-30T06:58:53;24.40;54.50
59162;DHT22;44942;48.936;8.260;2023-09-30T07:03:54;24.20;54.40
59162;DHT22;44942;48.936;8.260;2023-09-30T07:08:54;24.10;54.40
59162;DHT22;44942;48.936;8.260;2023-09-30T07:13:55;24.00;54.40
59162;DHT22;44942;48.936;8.260;2023-09-30T07:18:56;23.90;54.40
59162;DHT22;44942;48.936;8.260;2023-09-30T07:23:57;23.90;54.50
59162;DHT22;44942;48.936;8.260;2023-09-30T07:28:58;23.90;54.40
59162;DHT22;44942;48.936;8.260;2023-09-30T07:33:58;23.90;54.50
59162;DHT22;44942;48.936;8.260;2023-09-30T07:38:59;23.90;54.50
59162;DHT22;44942;48.936;8.260;2023-09-30T07:44:01;23.90;54.60
59162;DHT22;44942;48.936;8.260;2023-09-30T07:49:01;24.00;54.70
59162;DHT22;44942;48.936;8.260;2023-09-30T07:54:03;24.10;54.80
59162;DHT22;44942;48.936;8.260;2023-09-30T07:59:04;24.20;54.70
59162;DHT22;44942;48.936;8.260;2023-09-30T08:04:05;24.30;54.50
59162;DHT22;44942;48.936;8.260;2023-09-30T08:09:06;24.30;54.10
59162;DHT22;44942;48.936;8.260;2023-09-30T08:14:11;24.30;53.90
59162;DHT22;44942;48.936;8.260;2023-09-30T08:19:12;24.30;53.80
59162;DHT22;44942;48.936;8.260;2023-09-30T08:24:12;24.30;53.70
59162;DHT22;44942;48.936;8.260;2023-09-30T08:29:13;24.20;53.50
59162;DHT22;44942;48.936;8.260;2023-09-30T08:34:13;24.30;53.60
59162;DHT22;44942;48.936;8.260;2023-09-30T08:39:15;24.30;53.60
59162;DHT22;44942;48.936;8.260;2023-09-30T08:44:15;24.30;53.50
59162;DHT22;44942;48.936;8.260;2023-09-30T08:49:17;24.40;53.40
59162;DHT22;44942;48.936;8.260;2023-09-30T08:54:18;24.40;53.40
59162;DHT22;44942;48.936;8.260;2023-09-30T08:59:19;24.40;53.40
59162;DHT22;44942;48.936;8.260;2023-09-30T09:04:20;24.40;53.40
59162;DHT22;44942;48.936;8.260;2023-09-30T09:09:21;24.40;53.40
59162;DHT22;44942;48.936;8.260;2023-09-30T09:14:39;24.40;53.40
59162;DHT22;44942;48.936;8.260;2023-09-30T09:19:40;24.40;53.50
59162;DHT22;44942;48.936;8.260;2023-09-30T09:24:40;24.40;53.40
59162;DHT22;44942;48.936;8.260;2023-09-30T09:29:43;24.40;53.40
59162;DHT22;44942;48.936;8.260;2023-09-30T09:34:47;24.30;53.30
59162;DHT22;44942;48.936;8.260;2023-09-30T09:40:00;24.20;53.40
59162;DHT22;44942;48.936;8.260;2023-09-30T09:45:03;24.10;53.40
59162;DHT22;44942;48.936;8.260;2023-09-30T09:50:04;24.00;53.30
59162;DHT22;44942;48.936;8.260;2023-09-30T09:55:07;23.90;53.50
59162;DHT22;44942;48.936;8.260;2023-09-30T10:00:20;24.00;53.70
59162;DHT22;44942;48.936;8.260;2023-09-30T10:05:22;24.00;53.60
59162;DHT22;44942;48.936;8.260;2023-09-30T10:10:23;24.00;53.70
59162;DHT22;44942;48.936;8.260;2023-09-30T10:20:33;24.00;53.70
59162;DHT22;44942;48.936;8.260;2023-09-30T10:25:35;24.00;53.90
59162;DHT22;44942;48.936;8.260;2023-09-30T10:30:36;23.90;53.90
59162;DHT22;44942;48.936;8.260;2023-09-30T10:40:37;24.10;53.90
59162;DHT22;44942;48.936;8.260;2023-09-30T10:50:50;24.20;53.90
59162;DHT22;44942;48.936;8.260;2023-09-30T10:55:56;24.20;53.80
59162;DHT22;44942;48.936;8.260;2023-09-30T11:00:56;24.20;53.80
59162;DHT22;44942;48.936;8.260;2023-09-30T11:05:58;24.20;53.60
59162;DHT22;44942;48.936;8.260;2023-09-30T11:10:58;24.20;53.40
59162;DHT22;44942;48.936;8.260;2023-09-30T11:16:02;24.20;53.30
59162;DHT22;44942;48.936;8.260;2023-09-30T11:26:07;24.10;52.90
59162;DHT22;44942;48.936;8.260;2023-09-30T11:31:11;24.10;52.90
59162;DHT22;44942;48.936;8.260;2023-09-30T11:36:12;24.20;52.90
59162;DHT22;44942;48.936;8.260;2023-09-30T11:41:15;24.20;52.80
59162;DHT22;44942;48.936;8.260;2023-09-30T11:46:18;24.20;52.80
59162;DHT22;44942;48.936;8.260;2023-09-30T11:51:19;24.20;52.80
59162;DHT22;44942;48.936;8.260;2023-09-30T11:56:20;24.20;52.80
59162;DHT22;44942;48.936;8.260;2023-09-30T12:01:22;24.30;52.80
59162;DHT22;44942;48.936;8.260;2023-09-30T12:06:25;24.30;52.90
59162;DHT22;44942;48.936;8.260;2023-09-30T12:11:26;24.30;52.70
59162;DHT22;44942;48.936;8.260;2023-09-30T12:16:26;24.30;52.50
59162;DHT22;44942;48.936;8.260;2023-09-30T12:21:27;24.30;52.50
59162;DHT22;44942;48.936;8.260;2023-09-30T12:26:30;24.40;52.60
59162;DHT22;44942;48.936;8.260;2023-09-30T12:31:31;24.40;52.70
59162;DHT22;44942;48.936;8.260;2023-09-30T12:36:31;24.40;52.70
59162;DHT22;44942;48.936;8.260;2023-09-30T12:41:33;24.40;52.60
59162;DHT22;44942;48.936;8.260;2023-09-30T12:46:34;24.40;52.10
59162;DHT22;44942;48.936;8.260;2023-09-30T12:51:37;24.40;51.80
59162;DHT22;44942;48.936;8.260;2023-09-30T12:56:37;24.40;51.80
59162;DHT22;44942;48.936;8.260;2023-09-30T13:01:38;24.50;51.70
59162;DHT22;44942;48.936;8.260;2023-09-30T13:06:39;24.50;51.60
59162;DHT22;44942;48.936;8.260;2023-09-30T13:11:40;24.50;51.60
59162;DHT22;44942;48.936;8.260;2023-09-30T13:16:41;24.50;51.50
59162;DHT22;44942;48.936;8.260;2023-09-30T13:21:44;24.50;51.50
59162;DHT22;44942;48.936;8.260;2023-09-30T13:26:45;24.50;51.30
59162;DHT22;44942;48.936;8.260;2023-09-30T13:31:46;24.50;51.10
59162;DHT22;44942;48.936;8.260;2023-09-30T13:36:46;24.50;51.10
59162;DHT22;44942;48.936;8.260;2023-09-30T13:41:47;24.50;51.10
59162;DHT22;44942;48.936;8.260;2023-09-30T13:46:47;24.60;51.10
59162;DHT22;44942;48.936;8.260;2023-09-30T13:51:48;24.60;51.00
59162;DHT22;44942;48.936;8.260;2023-09-30T13:56:48;24.60;50.90
59162;DHT22;44942;48.936;8.260;2023-09-30T14:01:49;24.60;50.80
59162;DHT22;44942;48.936;8.260;2023-09-30T14:06:50;24.60;50.70
59162;DHT22;44942;48.936;8.260;2023-09-30T14:11:51;24.60;50.60
59162;DHT22;44942;48.936;8.260;2023-09-30T14:16:51;24.60;50.60
59162;DHT22;44942;48.936;8.260;2023-09-30T14:21:52;24.70;50.50
59162;DHT22;44942;48.936;8.260;2023-09-30T14:26:53;24.70;50.30
59162;DHT22;44942;48.936;8.260;2023-09-30T14:31:56;24.70;50.20
59162;DHT22;44942;48.936;8.260;2023-09-30T14:36:57;24.70;50.30
59162;DHT22;44942;48.936;8.260;2023-09-30T14:41:57;24.80;50.30
59162;DHT22;44942;48.936;8.260;2023-09-30T14:46:58;24.70;50.20
59162;DHT22;44942;48.936;8.260;2023-09-30T14:51:58;24.80;50.10
59162;DHT22;44942;48.936;8.260;2023-09-30T14:56:59;24.80;50.00
59162;DHT22;44942;48.936;8.260;2023-09-30T15:02:00;24.80;49.70
59162;DHT22;44942;48.936;8.260;2023-09-30T15:07:00;24.80;49.40
59162;DHT22;44942;48.936;8.260;2023-09-30T15:12:01;24.80;49.10
59162;DHT22;44942;48.936;8.260;2023-09-30T15:17:02;24.80;49.60
59162;DHT22;44942;48.936;8.260;2023-09-30T15:22:02;24.90;48.70
59162;DHT22;44942;48.936;8.260;2023-09-30T15:27:03;24.90;48.70
59162;DHT22;44942;48.936;8.260;2023-09-30T15:32:03;24.90;48.90
59162;DHT22;44942;48.936;8.260;2023-09-30T15:37:05;24.90;49.10
59162;DHT22;44942;48.936;8.260;2023-09-30T15:42:06;24.80;49.20
59162;DHT22;44942;48.936;8.260;2023-09-30T15:47:09;24.80;49.40
59162;DHT22;44942;48.936;8.260;2023-09-30T15:52:10;24.90;49.40
59162;DHT22;44942;48.936;8.260;2023-09-30T15:57:10;24.80;49.40
59162;DHT22;44942;48.936;8.260;2023-09-30T16:02:11;24.90;49.30
59162;DHT22;44942;48.936;8.260;2023-09-30T16:07:12;24.90;49.50
59162;DHT22;44942;48.936;8.260;2023-09-30T16:12:12;24.90;49.50
59162;DHT22;44942;48.936;8.260;2023-09-30T16:17:14;24.90;49.60
59162;DHT22;44942;48.936;8.260;2023-09-30T16:22:14;24.90;49.80
59162;DHT22;44942;48.936;8.260;2023-09-30T16:27:15;24.90;49.90
59162;DHT22;44942;48.936;8.260;2023-09-30T16:32:15;24.90;50.00
59162;DHT22;44942;48.936;8.260;2023-09-30T16:37:16;24.80;50.00
59162;DHT22;44942;48.936;8.260;2023-09-30T16:42:17;24.80;50.10
59162;DHT22;44942;48.936;8.260;2023-09-30T16:47:18;24.80;50.00
59162;DHT22;44942;48.936;8.260;2023-09-30T16:52:18;24.70;49.80
59162;DHT22;44942;48.936;8.260;2023-09-30T16:57:19;24.70;50.00
59162;DHT22;44942;48.936;8.260;2023-09-30T17:02:19;24.60;50.70
59162;DHT22;44942;48.936;8.260;2023-09-30T17:07:21;24.50;50.20
59162;DHT22;44942;48.936;8.260;2023-09-30T17:12:21;24.40;50.40
59162;DHT22;44942;48.936;8.260;2023-09-30T17:17:22;24.50;50.50
59162;DHT22;44942;48.936;8.260;2023-09-30T17:22:22;24.50;50.60
59162;DHT22;44942;48.936;8.260;2023-09-30T17:27:23;24.60;50.60
59162;DHT22;44942;48.936;8.260;2023-09-30T17:32:23;24.60;50.50
59162;DHT22;44942;48.936;8.260;2023-09-30T17:37:24;24.60;50.60
59162;DHT22;44942;48.936;8.260;2023-09-30T17:42:26;24.70;50.60
59162;DHT22;44942;48.936;8.260;2023-09-30T17:47:26;24.70;50.60
59162;DHT22;44942;48.936;8.260;2023-09-30T17:52:27;24.70;50.60
59162;DHT22;44942;48.936;8.260;2023-09-30T17:57:28;24.70;50.60
59162;DHT22;44942;48.936;8.260;2023-09-30T18:02:29;24.80;50.70
59162;DHT22;44942;48.936;8.260;2023-09-30T18:07:29;24.70;50.70
59162;DHT22;44942;48.936;8.260;2023-09-30T18:12:30;24.80;50.80
59162;DHT22;44942;48.936;8.260;2023-09-30T18:17:30;24.80;50.80
59162;DHT22;44942;48.936;8.260;2023-09-30T18:22:32;24.80;50.90
59162;DHT22;44942;48.936;8.260;2023-09-30T18:27:35;24.80;51.00
59162;DHT22;44942;48.936;8.260;2023-09-30T18:32:36;24.90;51.10
59162;DHT22;44942;48.936;8.260;2023-09-30T18:37:38;24.90;51.20
59162;DHT22;44942;48.936;8.260;2023-09-30T18:42:38;24.90;51.20
59162;DHT22;44942;48.936;8.260;2023-09-30T18:47:39;24.90;51.30
59162;DHT22;44942;48.936;8.260;2023-09-30T18:52:39;24.90;51.80
59162;DHT22;44942;48.936;8.260;2023-09-30T18:57:40;24.90;51.30
59162;DHT22;44942;48.936;8.260;2023-09-30T19:02:41;24.90;51.50
59162;DHT22;44942;48.936;8.260;2023-09-30T19:07:41;24.90;51.40
59162;DHT22;44942;48.936;8.260;2023-09-30T19:12:42;24.90;51.50
59162;DHT22;44942;48.936;8.260;2023-09-30T19:17:42;24.90;51.50
59162;DHT22;44942;48.936;8.260;2023-09-30T19:22:43;24.90;51.50
59162;DHT22;44942;48.936;8.260;2023-09-30T19:27:44;24.90;52.20
59162;DHT22;44942;48.936;8.260;2023-09-30T19:32:44;24.90;51.50
59162;DHT22;44942;48.936;8.260;2023-09-30T19:37:45;24.90;51.50
59162;DHT22;44942;48.936;8.260;2023-09-30T19:42:45;24.90;51.50
59162;DHT22;44942;48.936;8.260;2023-09-30T19:47:46;24.90;51.60
59162;DHT22;44942;48.936;8.260;2023-09-30T19:52:46;24.90;51.70
59162;DHT22;44942;48.936;8.260;2023-09-30T19:57:47;24.90;51.70
59162;DHT22;44942;48.936;8.260;2023-09-30T20:02:48;24.90;51.70
59162;DHT22;44942;48.936;8.260;2023-09-30T20:07:48;24.90;51.70
59162;DHT22;44942;48.936;8.260;2023-09-30T20:12:50;24.90;51.70
59162;DHT22;44942;48.936;8.260;2023-09-30T20:17:51;24.90;51.70
59162;DHT22;44942;48.936;8.260;2023-09-30T20:22:51;24.90;51.70
59162;DHT22;44942;48.936;8.260;2023-09-30T20:27:52;24.90;51.80
59162;DHT22;44942;48.936;8.260;2023-09-30T20:32:52;25.00;51.80
59162;DHT22;44942;48.936;8.260;2023-09-30T20:37:53;25.00;52.60
59162;DHT22;44942;48.936;8.260;2023-09-30T20:42:55;25.00;51.90
59162;DHT22;44942;48.936;8.260;2023-09-30T20:47:56;25.00;52.00
59162;DHT22;44942;48.936;8.260;2023-09-30T20:52:58;25.00;52.00
59162;DHT22;44942;48.936;8.260;2023-09-30T20:57:59;25.00;52.00
59162;DHT22;44942;48.936;8.260;2023-09-30T21:03:00;25.00;51.80
59162;DHT22;44942;48.936;8.260;2023-09-30T21:08:01;24.90;51.40
59162;DHT22;44942;48.936;8.260;2023-09-30T21:13:02;24.90;51.40
59162;DHT22;44942;48.936;8.260;2023-09-30T21:18:03;24.80;51.30
59162;DHT22;44942;48.936;8.260;2023-09-30T21:23:04;24.80;51.20
59162;DHT22;44942;48.936;8.260;2023-09-30T21:28:05;24.70;51.20
59162;DHT22;44942;48.936;8.260;2023-09-30T21:33:05;24.70;51.30
59162;DHT22;44942;48.936;8.260;2023-09-30T21:38:06;24.60;51.10
59162;DHT22;44942;48.936;8.260;2023-09-30T21:43:08;24.60;51.10
59162;DHT22;44942;48.936;8.260;2023-09-30T21:48:09;24.50;51.00
59162;DHT22;44942;48.936;8.260;2023-09-30T21:53:09;24.50;51.00
59162;DHT22;44942;48.936;8.260;2023-09-30T21:58:10;24.40;51.70
59162;DHT22;44942;48.936;8.260;2023-09-30T22:03:11;24.40;51.00
59162;DHT22;44942;48.936;8.260;2023-09-30T22:08:11;24.40;50.90
59162;DHT22;44942;48.936;8.260;2023-09-30T22:13:12;24.30;50.80
59162;DHT22;44942;48.936;8.260;2023-09-30T22:18:13;24.30;50.80
59162;DHT22;44942;48.936;8.260;2023-09-30T22:23:14;24.30;50.70
59162;DHT22;44942;48.936;8.260;2023-09-30T22:28:15;24.20;50.80
59162;DHT22;44942;48.936;8.260;2023-09-30T22:33:16;24.20;50.70
59162;DHT22;44942;48.936;8.260;2023-09-30T22:38:16;24.20;51.30
59162;DHT22;44942;48.936;8.260;2023-09-30T22:43:17;24.10;50.70
59162;DHT22;44942;48.936;8.260;2023-09-30T22:48:20;24.10;50.70
59162;DHT22;44942;48.936;8.260;2023-09-30T22:53:21;24.10;50.70
59162;DHT22;44942;48.936;8.260;2023-09-30T22:58:21;24.10;50.60
59162;DHT22;44942;48.936;8.260;2023-09-30T23:03:22;24.00;50.50
59162;DHT22;44942;48.936;8.260;2023-09-30T23:08:23;24.00;50.50
59162;DHT22;44942;48.936;8.260;2023-09-30T23:13:23;24.00;50.50
59162;DHT22;44942;48.936;8.260;2023-09-30T23:18:24;23.90;50.40
59162;DHT22;44942;48.936;8.260;2023-09-30T23:23:24;23.90;50.40
59162;DHT22;44942;48.936;8.260;2023-09-30T23:28:26;23.90;50.30
59162;DHT22;44942;48.936;8.260;2023-09-30T23:33:26;23.90;50.40
59162;DHT22;44942;48.936;8.260;2023-09-30T23:38:27;23.80;50.30
59162;DHT22;44942;48.936;8.260;2023-09-30T23:43:28;23.80;50.20
59162;DHT22;44942;48.936;8.260;2023-09-30T23:48:30;23.70;50.10
59162;DHT22;44942;48.936;8.260;2023-09-30T23:53:31;23.70;50.10
59162;DHT22;44942;48.936;8.260;2023-09-30T23:58:35;23.70;50.10
